Urb Victor Braeger, Puerto Rico
Current Conditions -  °F | °C
As of 3:56 AM on Thursday 23 Oct 2014 (Local Time) from TJSJ Reporting Station
Broken Clouds Broken Clouds  
Wind Chill: 79°   Ceiling: 2300
Heat Index: 82°   Visibility: 10mi
Dew Point: 74°   Wind: 0mph
Humidity: 84%   Direction: NA
Pressure: 29.92"   Gusts: NA
Location:  18.3882°N, 66.1144°W
Report Text: TJSJ 230756Z 00000KT 10SM BKN023 BKN028 26/23 A2992 RMK AO2 SLP130 T02610233
Loading
Personal Weather Stations






























Interactive Weather Map
Tropical Storm Tracking
New forecast layout! Learn more

10-Day Weather Forecast

Advertisements
Track Severe Weather on mobile